Time;durP1;ratioP1;P1;durP2;ratioP2;P2;SDS_P1;SDS_P2;PMS_P1;PMS_P2;Temp;Humidity;BMP_temperature;BMP_pressure;BME280_temperature;BME280_humidity;BME280_pressure;Samples;Min_cycle;Max_cycle;Signal;HPM_P1;HPM_P2
2022/03/21 00:00:39;;;;;;;;;;;20.90;38.00;;;;;;5075231;28;19928;-48
2022/03/21 00:03:07;;;;;;;;;;;20.90;38.00;;;;;;5074376;28;19924;-42
2022/03/21 00:05:35;;;;;;;;;;;20.90;38.00;;;;;;5074357;28;19924;-43
2022/03/21 00:08:03;;;;;;;;;;;20.90;38.00;;;;;;5075449;28;19978;-41
2022/03/21 00:10:40;;;;;;;;;;;20.90;38.00;;;;;;5075424;28;19956;-46
2022/03/21 00:13:08;;;;;;;;;;;20.90;38.00;;;;;;5074984;28;19925;-47
2022/03/21 00:15:35;;;;;;;;;;;20.90;38.00;;;;;;5074999;28;19924;-41
2022/03/21 00:18:03;;;;;;;;;;;20.90;38.00;;;;;;5068005;28;19947;-48
2022/03/21 00:20:31;;;;;;;;;;;20.90;38.00;;;;;;5069814;28;19924;-43
2022/03/21 00:22:58;;;;;;;;;;;20.90;38.00;;;;;;5075050;28;20360;-41
2022/03/21 00:25:26;;;;;;;;;;;20.90;38.00;;;;;;5074807;28;19924;-46
2022/03/21 00:27:53;;;;;;;;;;;20.90;38.00;;;;;;5074757;28;19935;-42
2022/03/21 00:30:20;;;;;;;;;;;20.90;38.00;;;;;;5075030;28;19978;-45
2022/03/21 00:32:47;;;;;;;;;;;20.90;38.00;;;;;;5074164;28;20021;-41
2022/03/21 00:35:17;;;;;;;;;;;20.90;38.00;;;;;;5074125;28;19978;-40
2022/03/21 00:37:44;;;;;;;;;;;20.90;38.00;;;;;;5074572;28;20384;-44
2022/03/21 00:40:12;;;;;;;;;;;20.90;38.00;;;;;;5074866;28;20269;-39
2022/03/21 00:42:40;;;;;;;;;;;20.90;38.00;;;;;;5074590;28;19971;-40
2022/03/21 00:45:09;;;;;;;;;;;20.90;38.00;;;;;;5074715;28;19983;-49
2022/03/21 00:47:36;;;;;;;;;;;20.90;38.00;;;;;;5073823;28;19974;-46
2022/03/21 00:50:04;;;;;;;;;;;20.90;38.00;;;;;;5073588;28;19929;-46
2022/03/21 00:52:32;;;;;;;;;;;20.90;38.00;;;;;;5074488;28;20335;-47
2022/03/21 00:55:00;;;;;;;;;;;20.90;38.00;;;;;;5074566;28;19928;-40
2022/03/21 00:57:27;;;;;;;;;;;20.90;38.00;;;;;;5075040;28;19924;-40
2022/03/21 00:59:53;;;;;;;;;;;20.90;38.00;;;;;;5074154;28;19982;-43
2022/03/21 01:02:20;;;;;;;;;;;20.90;38.00;;;;;;5074358;28;19924;-40
2022/03/21 01:04:48;;;;;;;;;;;20.90;38.10;;;;;;5073131;28;19924;-41
2022/03/21 01:07:15;;;;;;;;;;;20.80;38.00;;;;;;5074649;28;19929;-41
2022/03/21 01:09:41;;;;;;;;;;;20.90;38.10;;;;;;5074044;28;20376;-43
2022/03/21 01:12:09;;;;;;;;;;;20.80;38.00;;;;;;5074228;28;19967;-43
2022/03/21 01:14:36;;;;;;;;;;;20.90;38.00;;;;;;5073434;28;19924;-40
2022/03/21 01:17:03;;;;;;;;;;;20.80;38.00;;;;;;5074145;28;19970;-43
2022/03/21 01:19:31;;;;;;;;;;;20.80;38.00;;;;;;5061042;28;20016;-40
2022/03/21 01:21:58;;;;;;;;;;;20.80;38.00;;;;;;5073504;28;20439;-40
2022/03/21 01:24:25;;;;;;;;;;;20.80;38.00;;;;;;5074152;28;19924;-39
2022/03/21 01:26:52;;;;;;;;;;;20.80;38.00;;;;;;5073803;28;19925;-41
2022/03/21 01:29:19;;;;;;;;;;;20.80;38.00;;;;;;5056296;28;20019;-39
2022/03/21 01:31:46;;;;;;;;;;;20.80;38.00;;;;;;5073731;28;20015;-42
2022/03/21 01:34:13;;;;;;;;;;;20.80;38.00;;;;;;5073177;28;19935;-40
2022/03/21 01:36:40;;;;;;;;;;;20.80;38.00;;;;;;5073220;28;20007;-41
2022/03/21 01:39:07;;;;;;;;;;;20.80;38.00;;;;;;5073978;28;20362;-40
2022/03/21 01:41:34;;;;;;;;;;;20.80;38.00;;;;;;5073427;28;20024;-40
2022/03/21 01:44:02;;;;;;;;;;;20.80;38.00;;;;;;5073971;28;19931;-42
2022/03/21 01:46:30;;;;;;;;;;;20.80;38.00;;;;;;5073876;28;19967;-40
2022/03/21 01:48:57;;;;;;;;;;;20.80;38.00;;;;;;5067863;28;19931;-40
2022/03/21 01:51:25;;;;;;;;;;;20.80;38.00;;;;;;5067869;28;20019;-42
2022/03/21 01:56:41;;;;;;;;;;;20.80;38.00;;;;;;5073893;28;20033;-43
2022/03/21 01:59:09;;;;;;;;;;;20.80;38.00;;;;;;5073450;28;19924;-41
2022/03/21 02:01:37;;;;;;;;;;;20.80;38.00;;;;;;5073788;28;20346;-40
2022/03/21 02:04:04;;;;;;;;;;;20.80;38.00;;;;;;5072913;28;19924;-40
2022/03/21 02:06:31;;;;;;;;;;;20.80;38.20;;;;;;5072575;28;20015;-40
2022/03/21 02:08:59;;;;;;;;;;;20.80;38.00;;;;;;5073688;28;20303;-40
2022/03/21 02:11:27;;;;;;;;;;;20.80;38.10;;;;;;5073220;28;19954;-40
2022/03/21 02:13:55;;;;;;;;;;;20.80;38.00;;;;;;5074206;28;19976;-41
2022/03/21 02:16:23;;;;;;;;;;;20.80;38.00;;;;;;5073295;28;19924;-40
2022/03/21 02:18:50;;;;;;;;;;;20.80;38.00;;;;;;5072730;28;19924;-42
2022/03/21 02:21:23;;;;;;;;;;;20.80;38.10;;;;;;5060735;28;19979;-39
2022/03/21 02:24:02;;;;;;;;;;;20.80;38.00;;;;;;5053544;28;19994;-40
2022/03/21 02:26:29;;;;;;;;;;;20.80;38.10;;;;;;5057417;28;19925;-40
2022/03/21 02:28:57;;;;;;;;;;;20.80;38.10;;;;;;5057381;28;20016;-39
2022/03/21 02:31:27;;;;;;;;;;;20.80;38.10;;;;;;5056946;28;19987;-40
2022/03/21 02:33:55;;;;;;;;;;;20.80;38.10;;;;;;5057701;28;19924;-40
2022/03/21 02:36:23;;;;;;;;;;;20.80;38.10;;;;;;5076074;28;19924;-39
2022/03/21 02:38:50;;;;;;;;;;;20.80;38.10;;;;;;5059526;28;19990;-42
2022/03/21 02:41:17;;;;;;;;;;;20.80;38.10;;;;;;5076637;28;19975;-42
2022/03/21 02:43:54;;;;;;;;;;;20.80;38.10;;;;;;5077074;28;19963;-39
2022/03/21 02:46:22;;;;;;;;;;;20.80;38.10;;;;;;5077038;28;19925;-39
2022/03/21 02:48:50;;;;;;;;;;;20.80;38.10;;;;;;5076973;28;19925;-40
2022/03/21 02:51:21;;;;;;;;;;;20.70;38.00;;;;;;5074844;28;19979;-43
2022/03/21 02:53:49;;;;;;;;;;;20.80;38.10;;;;;;5076871;28;19963;-49
2022/03/21 02:56:17;;;;;;;;;;;20.70;38.00;;;;;;5076572;28;20019;-46
2022/03/21 02:58:44;;;;;;;;;;;20.70;38.00;;;;;;5076817;28;19997;-50
2022/03/21 03:01:12;;;;;;;;;;;20.70;38.00;;;;;;5076427;28;20015;-47
2022/03/21 03:03:39;;;;;;;;;;;20.70;38.00;;;;;;5076410;28;19924;-43
2022/03/21 03:06:06;;;;;;;;;;;20.70;38.00;;;;;;5074957;28;19924;-48
2022/03/21 03:08:34;;;;;;;;;;;20.70;38.10;;;;;;5076358;28;19970;-46
2022/03/21 03:11:01;;;;;;;;;;;20.70;38.00;;;;;;5076478;28;19967;-44
2022/03/21 03:13:28;;;;;;;;;;;20.70;38.00;;;;;;5076219;28;20447;-46
2022/03/21 03:15:55;;;;;;;;;;;20.70;38.00;;;;;;5076253;28;19924;-40
2022/03/21 03:18:22;;;;;;;;;;;20.70;38.00;;;;;;5076479;28;19924;-47
2022/03/21 03:20:51;;;;;;;;;;;20.70;38.00;;;;;;5074462;28;19975;-49
2022/03/21 03:23:18;;;;;;;;;;;20.70;38.00;;;;;;5075941;28;20447;-42
2022/03/21 03:25:46;;;;;;;;;;;20.70;38.00;;;;;;5076331;28;20330;-47
2022/03/21 03:28:13;;;;;;;;;;;20.70;38.00;;;;;;5076315;28;19986;-46
2022/03/21 03:31:00;;;;;;;;;;;20.70;38.00;;;;;;5077090;28;19931;-43
2022/03/21 03:33:29;;;;;;;;;;;20.70;38.00;;;;;;5058779;28;20334;-47
2022/03/21 03:35:56;;;;;;;;;;;20.70;38.00;;;;;;5073478;28;19925;-41
2022/03/21 03:38:23;;;;;;;;;;;20.70;38.00;;;;;;5075681;28;20019;-42
2022/03/21 03:40:50;;;;;;;;;;;20.70;38.00;;;;;;5058407;28;19928;-43
2022/03/21 03:43:17;;;;;;;;;;;20.80;38.20;;;;;;5075496;28;19979;-42
2022/03/21 03:45:44;;;;;;;;;;;20.70;38.00;;;;;;5075639;28;19975;-43
2022/03/21 03:48:11;;;;;;;;;;;20.70;38.00;;;;;;5076710;28;19931;-40
2022/03/21 03:50:38;;;;;;;;;;;20.70;38.00;;;;;;5066557;28;19924;-40
2022/03/21 03:53:05;;;;;;;;;;;20.70;38.10;;;;;;5073995;28;20299;-42
2022/03/21 03:55:32;;;;;;;;;;;20.70;38.10;;;;;;5075479;28;19967;-44
2022/03/21 03:57:59;;;;;;;;;;;20.70;38.10;;;;;;5075720;28;19959;-40
2022/03/21 04:00:26;;;;;;;;;;;20.70;38.10;;;;;;5075329;28;19964;-42
2022/03/21 04:05:38;;;;;;;;;;;20.70;38.10;;;;;;5074694;28;19930;-40
2022/03/21 04:08:06;;;;;;;;;;;20.70;38.00;;;;;;5074544;28;20373;-43
2022/03/21 04:10:33;;;;;;;;;;;20.70;38.10;;;;;;5075149;28;19998;-41
2022/03/21 04:13:00;;;;;;;;;;;20.70;38.10;;;;;;5075225;28;19931;-43
2022/03/21 04:15:27;;;;;;;;;;;20.70;38.00;;;;;;5075354;28;19924;-41
2022/03/21 04:17:58;;;;;;;;;;;20.70;38.10;;;;;;5075022;28;19925;-42
2022/03/21 04:20:25;;;;;;;;;;;20.70;38.00;;;;;;5074258;28;19928;-39
2022/03/21 04:22:53;;;;;;;;;;;20.70;38.00;;;;;;5073827;28;19947;-41
2022/03/21 04:25:19;;;;;;;;;;;20.70;38.10;;;;;;5075681;28;19924;-39
2022/03/21 04:27:46;;;;;;;;;;;20.70;38.10;;;;;;5075100;28;19979;-41
2022/03/21 04:30:14;;;;;;;;;;;20.70;38.00;;;;;;5074755;28;19925;-43
2022/03/21 04:32:41;;;;;;;;;;;20.70;38.00;;;;;;5074693;28;19924;-43
2022/03/21 04:35:08;;;;;;;;;;;20.70;38.10;;;;;;5074270;28;20022;-40
2022/03/21 04:37:36;;;;;;;;;;;20.70;38.10;;;;;;5073393;28;20422;-40
2022/03/21 04:40:03;;;;;;;;;;;20.70;38.00;;;;;;5074552;28;19975;-41
2022/03/21 04:42:31;;;;;;;;;;;20.70;38.10;;;;;;5074554;28;19924;-40
2022/03/21 04:44:57;;;;;;;;;;;20.70;38.00;;;;;;5074469;28;19924;-44
2022/03/21 04:47:24;;;;;;;;;;;20.70;38.00;;;;;;5074334;28;20435;-42
2022/03/21 04:49:51;;;;;;;;;;;20.70;38.10;;;;;;5074698;28;19955;-41
2022/03/21 04:52:18;;;;;;;;;;;20.70;38.10;;;;;;5072848;28;19931;-40
2022/03/21 04:54:45;;;;;;;;;;;20.70;38.10;;;;;;5074573;28;19928;-39
2022/03/21 04:57:12;;;;;;;;;;;20.70;38.10;;;;;;5074545;28;19970;-40
2022/03/21 04:59:39;;;;;;;;;;;20.70;38.10;;;;;;5074526;28;20334;-39
2022/03/21 05:02:07;;;;;;;;;;;20.70;38.10;;;;;;5074097;28;19928;-43
2022/03/21 05:04:34;;;;;;;;;;;20.60;38.00;;;;;;5074451;28;20332;-42
2022/03/21 05:07:01;;;;;;;;;;;20.70;38.10;;;;;;5072669;28;20007;-41
2022/03/21 05:09:28;;;;;;;;;;;20.70;38.10;;;;;;5056439;28;20435;-41
2022/03/21 05:11:55;;;;;;;;;;;20.70;38.00;;;;;;5073822;28;19928;-46
2022/03/21 05:14:22;;;;;;;;;;;20.60;38.00;;;;;;5074328;28;19929;-43
2022/03/21 05:16:49;;;;;;;;;;;20.70;38.10;;;;;;5073973;28;19924;-40
2022/03/21 05:19:17;;;;;;;;;;;20.70;38.00;;;;;;5073920;28;19924;-42
2022/03/21 05:21:44;;;;;;;;;;;20.70;38.00;;;;;;5072873;28;19970;-39
2022/03/21 05:32:27;;;;;;;;;;;20.70;38.00;;;;;;5073814;28;19924;-40
2022/03/21 05:37:39;;;;;;;;;;;20.70;38.00;;;;;;5072213;28;19924;-41
2022/03/21 05:42:52;;;;;;;;;;;20.70;38.00;;;;;;5073491;28;20016;-41
2022/03/21 05:45:19;;;;;;;;;;;20.70;38.00;;;;;;5055839;28;19925;-40
2022/03/21 05:50:34;;;;;;;;;;;20.70;37.90;;;;;;5073991;28;20331;-39
2022/03/21 05:53:02;;;;;;;;;;;20.70;37.90;;;;;;5064583;28;19924;-39
2022/03/21 05:55:30;;;;;;;;;;;20.70;37.90;;;;;;5073824;28;19924;-40
2022/03/21 05:57:57;;;;;;;;;;;20.70;37.90;;;;;;5073469;28;19983;-40
2022/03/21 06:00:24;;;;;;;;;;;20.70;37.90;;;;;;5076122;28;19928;-44
2022/03/21 06:02:52;;;;;;;;;;;20.70;37.90;;;;;;5077821;28;20359;-41
2022/03/21 06:05:20;;;;;;;;;;;20.70;37.90;;;;;;5077562;28;19924;-40
2022/03/21 06:07:47;;;;;;;;;;;20.70;37.80;;;;;;5076400;28;19924;-40
2022/03/21 06:10:14;;;;;;;;;;;20.70;37.80;;;;;;5077988;28;19936;-40
2022/03/21 06:12:41;;;;;;;;;;;20.70;37.80;;;;;;5077551;28;19999;-43
2022/03/21 06:15:09;;;;;;;;;;;20.70;37.80;;;;;;5059616;28;19968;-39
2022/03/21 06:17:40;;;;;;;;;;;20.70;37.80;;;;;;5077588;28;19993;-40
2022/03/21 06:20:08;;;;;;;;;;;20.70;38.40;;;;;;5076930;28;19929;-49
2022/03/21 06:22:35;;;;;;;;;;;20.80;37.80;;;;;;5067840;28;20345;-44
2022/03/21 06:25:03;;;;;;;;;;;20.80;37.80;;;;;;5077412;28;19975;-46
2022/03/21 06:27:30;;;;;;;;;;;20.80;37.80;;;;;;5077047;28;20376;-46
2022/03/21 06:29:57;;;;;;;;;;;20.80;37.80;;;;;;5077272;28;19978;-47
2022/03/21 06:32:24;;;;;;;;;;;20.80;37.80;;;;;;5077316;28;19924;-46
2022/03/21 06:34:52;;;;;;;;;;;20.80;37.80;;;;;;5077209;28;20010;-46
2022/03/21 06:37:20;;;;;;;;;;;20.80;37.80;;;;;;5076030;28;20361;-51
2022/03/21 06:39:47;;;;;;;;;;;20.80;37.70;;;;;;5075945;28;19975;-44
2022/03/21 06:42:14;;;;;;;;;;;20.80;37.70;;;;;;5076922;28;20383;-47
2022/03/21 06:44:42;;;;;;;;;;;20.80;37.70;;;;;;5077053;28;19978;-46
2022/03/21 06:47:09;;;;;;;;;;;20.80;37.70;;;;;;5076625;28;20372;-44
2022/03/21 06:49:36;;;;;;;;;;;20.80;37.70;;;;;;5076616;28;20015;-48
2022/03/21 06:52:05;;;;;;;;;;;20.80;37.70;;;;;;5075507;28;19930;-47
2022/03/21 06:54:32;;;;;;;;;;;20.80;37.70;;;;;;5075646;28;19970;-42
2022/03/21 06:57:00;;;;;;;;;;;20.80;37.70;;;;;;5076682;28;20358;-47
2022/03/21 06:59:29;;;;;;;;;;;20.80;37.60;;;;;;5076370;28;19974;-44
2022/03/21 07:01:56;;;;;;;;;;;20.80;37.60;;;;;;5076769;28;19977;-41
2022/03/21 07:04:26;;;;;;;;;;;20.80;37.60;;;;;;5076346;28;19924;-41
2022/03/21 07:06:53;;;;;;;;;;;20.80;37.60;;;;;;5076063;28;20011;-44
2022/03/21 07:09:21;;;;;;;;;;;20.80;37.60;;;;;;5075013;28;20316;-43
2022/03/21 07:11:48;;;;;;;;;;;20.80;37.60;;;;;;5074975;28;20295;-46
2022/03/21 07:14:14;;;;;;;;;;;20.80;37.60;;;;;;5075990;28;20384;-41
2022/03/21 07:16:41;;;;;;;;;;;20.80;37.60;;;;;;5076004;28;20007;-47
2022/03/21 07:19:09;;;;;;;;;;;20.80;37.60;;;;;;5076228;28;19925;-41
2022/03/21 07:21:36;;;;;;;;;;;20.80;37.60;;;;;;5075482;28;20261;-42
2022/03/21 07:24:03;;;;;;;;;;;20.90;37.60;;;;;;5074744;28;20319;-42
2022/03/21 07:26:31;;;;;;;;;;;20.90;37.60;;;;;;5075938;28;19971;-42
2022/03/21 07:28:58;;;;;;;;;;;20.90;37.60;;;;;;5058259;28;19974;-43
2022/03/21 07:31:31;;;;;;;;;;;20.90;37.60;;;;;;5076231;28;19971;-44
2022/03/21 07:33:59;;;;;;;;;;;20.90;37.60;;;;;;5076101;28;19932;-44
2022/03/21 07:36:26;;;;;;;;;;;20.90;37.60;;;;;;5075796;28;19974;-41
2022/03/21 07:38:53;;;;;;;;;;;20.90;37.50;;;;;;5074153;28;19924;-42
2022/03/21 07:41:23;;;;;;;;;;;20.90;37.50;;;;;;5075612;28;20385;-46
2022/03/21 07:43:50;;;;;;;;;;;20.90;37.50;;;;;;5075639;28;20327;-40
2022/03/21 07:49:03;;;;;;;;;;;20.90;37.50;;;;;;5075921;28;20289;-48
2022/03/21 07:51:30;;;;;;;;;;;20.90;37.40;;;;;;5075427;28;19928;-43
2022/03/21 07:53:57;;;;;;;;;;;20.90;37.40;;;;;;5073962;28;19978;-40
2022/03/21 07:56:25;;;;;;;;;;;20.90;37.40;;;;;;5076554;28;19982;-40
2022/03/21 07:58:52;;;;;;;;;;;20.90;37.40;;;;;;5075255;28;20376;-41
2022/03/21 08:01:19;;;;;;;;;;;20.90;37.40;;;;;;5075568;28;19967;-46
2022/03/21 08:03:46;;;;;;;;;;;20.90;37.40;;;;;;5075195;28;20023;-43
2022/03/21 08:06:13;;;;;;;;;;;20.90;37.30;;;;;;5075523;28;19993;-40
2022/03/21 08:08:40;;;;;;;;;;;20.90;37.90;;;;;;5068073;28;20412;-44
2022/03/21 08:11:09;;;;;;;;;;;21.00;37.30;;;;;;5075176;28;20354;-42
2022/03/21 08:13:38;;;;;;;;;;;20.90;37.20;;;;;;5075338;28;19928;-43
2022/03/21 08:16:05;;;;;;;;;;;21.00;37.20;;;;;;5075004;28;19925;-43
2022/03/21 08:18:33;;;;;;;;;;;21.00;37.20;;;;;;5074954;28;20055;-46
2022/03/21 08:21:00;;;;;;;;;;;21.00;37.20;;;;;;5074723;28;19974;-39
2022/03/21 08:23:27;;;;;;;;;;;21.00;37.20;;;;;;5073842;28;19979;-40
2022/03/21 08:25:57;;;;;;;;;;;21.00;37.20;;;;;;5073892;28;19924;-41
2022/03/21 08:28:25;;;;;;;;;;;21.00;37.10;;;;;;5075016;28;19931;-43
2022/03/21 08:30:52;;;;;;;;;;;21.00;37.10;;;;;;5075037;28;19924;-46
2022/03/21 08:33:19;;;;;;;;;;;21.00;37.00;;;;;;5074675;28;19931;-41
2022/03/21 08:35:46;;;;;;;;;;;21.00;37.00;;;;;;5074679;28;20019;-40
2022/03/21 08:38:13;;;;;;;;;;;21.00;36.90;;;;;;5074112;28;20277;-46
2022/03/21 08:40:40;;;;;;;;;;;21.10;37.00;;;;;;5073549;28;19975;-42
2022/03/21 08:43:08;;;;;;;;;;;21.10;36.90;;;;;;5074667;28;20305;-41
2022/03/21 08:45:35;;;;;;;;;;;21.10;36.90;;;;;;5074389;28;19987;-45
2022/03/21 08:48:02;;;;;;;;;;;21.10;36.80;;;;;;5074736;28;19924;-40
2022/03/21 08:50:30;;;;;;;;;;;21.10;36.80;;;;;;5074675;28;19931;-42
2022/03/21 08:52:58;;;;;;;;;;;21.10;36.70;;;;;;5074042;28;19934;-43
2022/03/21 08:55:25;;;;;;;;;;;21.10;36.70;;;;;;5073109;28;19924;-41
2022/03/21 08:57:53;;;;;;;;;;;21.10;36.60;;;;;;5074511;28;19928;-46
2022/03/21 09:00:20;;;;;;;;;;;21.10;36.50;;;;;;5074463;28;20335;-47
2022/03/21 09:02:49;;;;;;;;;;;21.10;36.50;;;;;;5074423;28;19967;-42
2022/03/21 09:05:17;;;;;;;;;;;21.20;36.60;;;;;;5074363;28;19925;-40
2022/03/21 09:07:44;;;;;;;;;;;21.20;36.60;;;;;;5074353;28;19931;-43
2022/03/21 09:10:13;;;;;;;;;;;21.20;36.60;;;;;;5072776;28;19928;-43
2022/03/21 09:12:43;;;;;;;;;;;21.20;36.50;;;;;;5073870;28;20015;-42
2022/03/21 09:15:11;;;;;;;;;;;21.20;36.50;;;;;;5073981;28;20297;-46
2022/03/21 09:17:38;;;;;;;;;;;21.20;36.40;;;;;;5056164;28;19929;-45
2022/03/21 09:20:06;;;;;;;;;;;21.20;36.40;;;;;;5073985;28;19925;-40
2022/03/21 09:22:34;;;;;;;;;;;21.30;36.50;;;;;;5074011;28;19924;-40
2022/03/21 09:25:01;;;;;;;;;;;21.30;36.40;;;;;;5072204;28;19979;-43
2022/03/21 09:27:28;;;;;;;;;;;21.30;36.50;;;;;;5074051;28;20019;-45
2022/03/21 09:29:55;;;;;;;;;;;21.30;36.40;;;;;;5073756;28;19928;-42
2022/03/21 09:32:22;;;;;;;;;;;21.30;36.40;;;;;;5073811;28;20381;-41
2022/03/21 09:34:49;;;;;;;;;;;21.30;36.40;;;;;;5073213;28;20335;-43
2022/03/21 09:37:16;;;;;;;;;;;21.30;36.40;;;;;;5073981;28;20133;-44
2022/03/21 09:39:43;;;;;;;;;;;21.40;36.40;;;;;;5066429;28;19979;-41
2022/03/21 09:42:10;;;;;;;;;;;21.30;36.30;;;;;;5073481;28;20421;-41
2022/03/21 09:44:37;;;;;;;;;;;21.40;36.40;;;;;;5073517;28;20411;-41
2022/03/21 09:49:51;;;;;;;;;;;21.40;36.40;;;;;;5073928;28;19925;-42
2022/03/21 09:52:19;;;;;;;;;;;21.40;36.40;;;;;;5073867;28;19975;-40
2022/03/21 09:54:46;;;;;;;;;;;21.40;36.40;;;;;;5071876;28;20019;-42
2022/03/21 09:57:13;;;;;;;;;;;21.40;36.40;;;;;;5073793;28;19933;-42
2022/03/21 09:59:40;;;;;;;;;;;21.40;36.40;;;;;;5073481;28;19960;-43
2022/03/21 10:02:08;;;;;;;;;;;21.50;36.40;;;;;;5073451;28;20399;-41
2022/03/21 10:04:35;;;;;;;;;;;21.50;36.40;;;;;;5073623;28;20356;-44
2022/03/21 10:07:02;;;;;;;;;;;21.50;36.40;;;;;;5073619;28;19924;-42
2022/03/21 10:09:29;;;;;;;;;;;21.50;36.40;;;;;;5072696;28;20007;-43
2022/03/21 10:11:57;;;;;;;;;;;21.50;36.40;;;;;;5072654;28;19931;-41
2022/03/21 10:14:34;;;;;;;;;;;21.50;36.40;;;;;;5073502;28;19925;-45
2022/03/21 10:17:03;;;;;;;;;;;21.50;36.40;;;;;;5073234;28;20388;-41
2022/03/21 10:19:41;;;;;;;;;;;21.50;36.40;;;;;;5073606;28;19963;-40
2022/03/21 10:22:09;;;;;;;;;;;21.50;36.40;;;;;;5073175;28;19952;-40
2022/03/21 10:24:42;;;;;;;;;;;21.50;36.40;;;;;;5068848;28;19928;-40
2022/03/21 10:27:27;;;;;;;;;;;21.60;36.50;;;;;;5072028;28;19975;-42
2022/03/21 10:30:00;;;;;;;;;;;21.60;36.40;;;;;;5073434;28;20304;-40
2022/03/21 10:32:31;;;;;;;;;;;21.60;36.40;;;;;;5072687;28;22357;-41
2022/03/21 10:35:06;;;;;;;;;;;21.60;37.10;;;;;;5073465;28;19982;-43
2022/03/21 10:37:44;;;;;;;;;;;21.60;36.50;;;;;;5073388;28;19924;-40
2022/03/21 10:40:33;;;;;;;;;;;21.60;36.50;;;;;;5071621;28;19925;-43
2022/03/21 10:43:03;;;;;;;;;;;21.60;36.40;;;;;;5073008;28;19964;-43
2022/03/21 10:45:40;;;;;;;;;;;21.60;36.40;;;;;;5073899;28;19931;-42
2022/03/21 10:48:10;;;;;;;;;;;21.60;36.40;;;;;;5077015;28;19928;-43
2022/03/21 10:50:41;;;;;;;;;;;21.60;36.40;;;;;;5076556;28;20483;-46
2022/03/21 10:53:22;;;;;;;;;;;21.60;36.40;;;;;;5077025;28;19925;-43
2022/03/21 10:55:50;;;;;;;;;;;21.70;36.40;;;;;;5070697;28;20339;-40
2022/03/21 10:58:32;;;;;;;;;;;21.70;36.40;;;;;;5076549;28;20449;-41
2022/03/21 11:01:18;;;;;;;;;;;21.70;36.40;;;;;;5076822;28;19928;-42
2022/03/21 11:03:49;;;;;;;;;;;21.70;36.40;;;;;;5059351;28;19934;-40
2022/03/21 11:06:16;;;;;;;;;;;21.70;36.40;;;;;;5076766;28;20269;-42
2022/03/21 11:08:50;;;;;;;;;;;21.70;36.40;;;;;;5076618;28;19977;-40
2022/03/21 11:11:17;;;;;;;;;;;21.70;36.40;;;;;;5074997;28;19971;-40
2022/03/21 11:13:45;;;;;;;;;;;21.70;36.40;;;;;;5076204;28;19933;-42
2022/03/21 11:16:21;;;;;;;;;;;21.70;36.40;;;;;;5076215;28;19929;-41
2022/03/21 11:18:51;;;;;;;;;;;21.70;36.40;;;;;;5076232;28;19931;-41
2022/03/21 11:21:19;;;;;;;;;;;21.70;36.40;;;;;;5075866;28;20380;-42
2022/03/21 11:23:47;;;;;;;;;;;21.70;36.40;;;;;;5076368;28;20371;-40
2022/03/21 11:26:14;;;;;;;;;;;21.70;36.40;;;;;;5074450;28;19968;-42
2022/03/21 11:28:57;;;;;;;;;;;21.70;36.40;;;;;;5076285;28;19925;-41
2022/03/21 11:31:40;;;;;;;;;;;21.70;36.40;;;;;;5075951;28;20442;-42
2022/03/21 11:34:39;;;;;;;;;;;21.70;36.40;;;;;;5075884;28;19936;-41
2022/03/21 11:37:06;;;;;;;;;;;21.70;36.40;;;;;;5014300;28;19925;-42
2022/03/21 11:39:33;;;;;;;;;;;21.70;36.40;;;;;;5014111;28;19933;-41
2022/03/21 11:42:00;;;;;;;;;;;21.70;36.40;;;;;;5012405;28;19925;-40
2022/03/21 11:44:28;;;;;;;;;;;21.70;36.40;;;;;;5013917;28;19930;-43
2022/03/21 11:47:15;;;;;;;;;;;21.70;36.40;;;;;;5014169;28;19975;-41
2022/03/21 11:49:43;;;;;;;;;;;21.70;36.40;;;;;;5013802;28;19926;-40
2022/03/21 11:52:11;;;;;;;;;;;21.70;36.40;;;;;;5013681;28;19929;-41
2022/03/21 11:54:38;;;;;;;;;;;21.70;36.40;;;;;;5013615;28;19925;-42
2022/03/21 11:57:24;;;;;;;;;;;21.70;36.40;;;;;;5011369;28;20398;-40
2022/03/21 11:59:52;;;;;;;;;;;21.70;36.40;;;;;;5013850;28;19972;-42
2022/03/21 12:02:20;;;;;;;;;;;21.70;36.40;;;;;;5013633;28;19926;-44
2022/03/21 12:05:09;;;;;;;;;;;21.70;36.40;;;;;;5014405;28;20041;-41
2022/03/21 12:07:38;;;;;;;;;;;21.70;36.40;;;;;;5013559;28;20012;-42
2022/03/21 12:10:07;;;;;;;;;;;21.70;36.40;;;;;;5013539;28;20332;-40
2022/03/21 12:12:40;;;;;;;;;;;21.70;36.40;;;;;;5029910;28;19929;-40
2022/03/21 12:15:14;;;;;;;;;;;21.70;36.40;;;;;;5055468;28;20002;-40
2022/03/21 12:17:50;;;;;;;;;;;21.70;36.40;;;;;;5055463;28;20442;-41
2022/03/21 12:20:18;;;;;;;;;;;21.70;36.40;;;;;;5055165;28;19925;-40
2022/03/21 12:23:13;;;;;;;;;;;21.80;36.50;;;;;;5055165;28;20024;-40
2022/03/21 12:25:42;;;;;;;;;;;21.80;37.10;;;;;;5055641;28;20384;-43
2022/03/21 12:28:20;;;;;;;;;;;21.70;36.40;;;;;;5073978;28;19932;-42
2022/03/21 12:30:50;;;;;;;;;;;21.80;36.40;;;;;;5075167;28;20031;-39
2022/03/21 12:33:17;;;;;;;;;;;21.80;36.40;;;;;;5074971;28;19971;-39
2022/03/21 12:35:44;;;;;;;;;;;21.80;36.40;;;;;;5074529;28;19970;-41
2022/03/21 12:38:22;;;;;;;;;;;21.80;36.40;;;;;;5074796;28;20326;-39
2022/03/21 12:41:03;;;;;;;;;;;21.80;36.40;;;;;;5074129;28;19925;-42
2022/03/21 12:43:32;;;;;;;;;;;21.70;36.40;;;;;;5056625;28;20069;-40
2022/03/21 12:46:05;;;;;;;;;;;21.80;36.40;;;;;;5074751;28;19978;-43
2022/03/21 12:48:40;;;;;;;;;;;21.80;36.40;;;;;;5074727;28;20395;-40
2022/03/21 12:51:09;;;;;;;;;;;21.80;36.40;;;;;;5074459;28;19929;-39
2022/03/21 12:53:46;;;;;;;;;;;21.80;36.40;;;;;;5074328;28;20011;-39
2022/03/21 12:56:13;;;;;;;;;;;21.70;36.40;;;;;;5073445;28;20350;-45
2022/03/21 12:58:45;;;;;;;;;;;21.80;36.40;;;;;;5074231;28;19974;-41
2022/03/21 13:01:14;;;;;;;;;;;21.80;36.40;;;;;;5074274;28;19924;-40
2022/03/21 13:03:42;;;;;;;;;;;21.80;36.40;;;;;;5074436;28;19970;-42
2022/03/21 13:11:38;;;;;;;;;;;21.70;36.40;;;;;;5072474;28;19978;-40
2022/03/21 13:14:15;;;;;;;;;;;21.80;36.40;;;;;;5074029;28;19962;-42
2022/03/21 13:16:52;;;;;;;;;;;21.80;36.40;;;;;;5074363;28;19924;-42
2022/03/21 13:19:22;;;;;;;;;;;21.70;36.40;;;;;;5074217;28;19954;-40
2022/03/21 13:21:50;;;;;;;;;;;21.80;36.50;;;;;;5073896;28;19924;-43
2022/03/21 13:24:37;;;;;;;;;;;21.80;36.50;;;;;;5056049;28;20023;-44
2022/03/21 13:27:05;;;;;;;;;;;21.80;36.40;;;;;;5072434;28;19924;-41
2022/03/21 13:29:33;;;;;;;;;;;21.80;36.40;;;;;;5074045;28;20008;-41
2022/03/21 13:32:00;;;;;;;;;;;21.80;36.50;;;;;;5073754;28;19974;-41
2022/03/21 13:34:27;;;;;;;;;;;21.80;36.40;;;;;;5074596;28;19974;-43
2022/03/21 13:36:54;;;;;;;;;;;21.80;36.40;;;;;;5074011;28;20031;-42
2022/03/21 13:39:26;;;;;;;;;;;21.80;36.40;;;;;;5074516;28;20011;-44
2022/03/21 13:41:53;;;;;;;;;;;21.80;36.40;;;;;;5054971;28;19976;-42
2022/03/21 13:44:21;;;;;;;;;;;21.80;36.40;;;;;;5073458;28;20467;-40
2022/03/21 13:47:01;;;;;;;;;;;21.80;36.50;;;;;;5073428;28;19929;-40
2022/03/21 13:49:47;;;;;;;;;;;21.80;36.50;;;;;;5073519;28;19925;-43
2022/03/21 13:52:15;;;;;;;;;;;21.80;36.50;;;;;;5073363;28;19975;-43
2022/03/21 13:54:48;;;;;;;;;;;21.80;36.40;;;;;;5073346;28;19971;-43
2022/03/21 13:57:15;;;;;;;;;;;21.80;36.40;;;;;;5071889;28;20415;-43
2022/03/21 13:59:42;;;;;;;;;;;21.80;36.40;;;;;;5073824;28;20011;-41
2022/03/21 14:02:17;;;;;;;;;;;21.80;36.50;;;;;;5073465;28;19924;-41
2022/03/21 14:04:44;;;;;;;;;;;21.80;36.40;;;;;;5073722;28;19924;-40
2022/03/21 14:07:11;;;;;;;;;;;21.80;36.50;;;;;;5073712;28;20019;-40
2022/03/21 14:09:48;;;;;;;;;;;21.80;36.40;;;;;;5073367;28;19924;-42
2022/03/21 14:12:15;;;;;;;;;;;21.70;36.40;;;;;;5072056;28;19928;-40
2022/03/21 14:14:42;;;;;;;;;;;21.70;36.40;;;;;;5073646;28;20361;-40
2022/03/21 14:17:10;;;;;;;;;;;21.80;36.50;;;;;;5073638;28;19971;-41
2022/03/21 14:19:39;;;;;;;;;;;21.70;36.40;;;;;;5073557;28;19929;-40
2022/03/21 14:22:06;;;;;;;;;;;21.80;36.50;;;;;;5076566;28;19925;-40
2022/03/21 14:24:33;;;;;;;;;;;21.80;36.50;;;;;;5077174;28;19978;-40
2022/03/21 14:27:00;;;;;;;;;;;21.70;36.40;;;;;;5075914;28;19975;-42
2022/03/21 14:29:27;;;;;;;;;;;21.70;36.40;;;;;;5077118;28;20288;-40
2022/03/21 14:31:54;;;;;;;;;;;21.70;36.40;;;;;;5077275;28;20414;-40
2022/03/21 14:34:21;;;;;;;;;;;21.80;36.50;;;;;;5077032;28;20384;-42
2022/03/21 14:36:49;;;;;;;;;;;21.70;36.40;;;;;;5059252;28;19987;-41
2022/03/21 14:39:16;;;;;;;;;;;21.70;36.40;;;;;;5077184;28;20004;-39
2022/03/21 14:41:44;;;;;;;;;;;21.80;36.50;;;;;;5076674;28;20015;-40
2022/03/21 14:44:13;;;;;;;;;;;21.70;36.40;;;;;;5075523;28;19932;-44
2022/03/21 14:46:40;;;;;;;;;;;21.70;36.40;;;;;;5076778;28;20395;-42
2022/03/21 14:49:07;;;;;;;;;;;21.70;36.40;;;;;;5059076;28;20395;-43
2022/03/21 14:51:35;;;;;;;;;;;21.70;36.40;;;;;;5076560;28;19925;-41
2022/03/21 14:54:02;;;;;;;;;;;21.70;36.40;;;;;;5076669;28;19924;-42
2022/03/21 14:56:30;;;;;;;;;;;21.70;36.40;;;;;;5076572;28;19976;-45
2022/03/21 14:58:57;;;;;;;;;;;21.70;36.40;;;;;;5075456;28;19967;-41